Time;durP1;ratioP1;P1;durP2;ratioP2;P2;SDS_P1;SDS_P2;PMS_P1;PMS_P2;Temp;Humidity;BMP_temperature;BMP_pressure;BME280_temperature;BME280_humidity;BME280_pressure;Samples;Min_cycle;Max_cycle;Signal;HPM_P1;HPM_P2
2023/12/12 00:01:23;;;;;;;4.70;1.50;;;9.20;30.30;;;;;;5007521;28;21002;-66
2023/12/12 00:03:50;;;;;;;5.07;1.90;;;9.30;30.50;;;;;;5009025;28;20456;-66
2023/12/12 00:06:18;;;;;;;5.50;1.80;;;9.30;30.40;;;;;;5008744;28;20875;-66
2023/12/12 00:08:45;;;;;;;6.00;1.80;;;9.30;30.40;;;;;;5006068;28;20482;-67
2023/12/12 00:11:12;;;;;;;5.73;2.50;;;9.30;30.30;;;;;;5006673;28;20490;-66
2023/12/12 00:13:39;;;;;;;4.67;1.80;;;9.30;30.40;;;;;;5008636;28;20456;-66
2023/12/12 00:16:07;;;;;;;4.80;1.83;;;9.40;30.50;;;;;;5006982;28;20464;-65
2023/12/12 00:18:34;;;;;;;5.37;2.00;;;9.40;30.60;;;;;;5003133;28;20944;-65
2023/12/12 00:21:01;;;;;;;5.70;2.20;;;9.30;30.70;;;;;;5005910;28;20897;-67
2023/12/12 00:23:29;;;;;;;5.83;2.30;;;9.30;30.70;;;;;;5006161;28;20456;-67
2023/12/12 00:25:55;;;;;;;7.40;2.20;;;9.30;30.70;;;;;;5007009;28;20721;-65
2023/12/12 00:28:22;;;;;;;6.10;2.47;;;9.30;30.80;;;;;;5006000;28;20467;-65
2023/12/12 00:30:50;;;;;;;6.63;2.30;;;9.30;30.90;;;;;;5004812;28;20473;-66
2023/12/12 00:33:17;;;;;;;5.03;1.90;;;9.30;30.90;;;;;;5008326;28;20464;-66
2023/12/12 00:35:44;;;;;;;5.33;1.97;;;9.30;31.60;;;;;;5008394;28;20466;-66
2023/12/12 00:38:11;;;;;;;4.90;1.83;;;9.40;31.00;;;;;;5006829;28;20474;-66
2023/12/12 00:40:39;;;;;;;5.17;2.00;;;9.30;30.90;;;;;;5008491;28;20563;-65
2023/12/12 00:43:06;;;;;;;6.70;3.20;;;9.30;31.00;;;;;;5006964;28;20462;-67
2023/12/12 00:45:33;;;;;;;5.07;1.97;;;9.20;30.90;;;;;;5004162;28;20459;-66
2023/12/12 00:47:59;;;;;;;8.43;2.63;;;9.20;31.00;;;;;;5008263;28;20963;-66
2023/12/12 00:50:26;;;;;;;4.50;1.90;;;9.20;31.20;;;;;;5018765;28;20483;-66
2023/12/12 00:52:54;;;;;;;4.33;1.87;;;9.20;31.10;;;;;;5017198;28;20478;-66
2023/12/12 00:55:20;;;;;;;7.10;2.70;;;9.20;31.20;;;;;;5013665;28;20483;-66
2023/12/12 00:57:49;;;;;;;5.80;2.27;;;9.10;31.20;;;;;;5008956;28;20468;-66
2023/12/12 01:00:17;;;;;;;6.33;2.37;;;9.20;31.20;;;;;;5020693;28;20532;-66
2023/12/12 01:02:43;;;;;;;6.27;2.47;;;9.20;31.30;;;;;;5040681;28;20483;-66
2023/12/12 01:05:10;;;;;;;6.60;2.80;;;9.20;31.20;;;;;;5019970;28;21032;-66
2023/12/12 01:07:37;;;;;;;5.23;2.10;;;9.20;31.20;;;;;;5015920;28;20464;-66
2023/12/12 01:10:05;;;;;;;5.50;2.17;;;9.10;31.10;;;;;;5016554;28;20486;-67
2023/12/12 01:12:32;;;;;;;5.73;2.50;;;9.10;31.20;;;;;;5012140;28;20456;-67
2023/12/12 01:15:00;;;;;;;5.90;2.53;;;9.10;31.20;;;;;;5008494;28;21133;-65
2023/12/12 01:17:27;;;;;;;6.43;2.77;;;9.00;31.10;;;;;;5015228;28;20465;-67
2023/12/12 01:19:54;;;;;;;8.00;2.40;;;9.00;31.10;;;;;;5016209;28;20462;-67
2023/12/12 01:22:21;;;;;;;9.20;3.10;;;9.00;31.20;;;;;;5013719;28;20463;-66
2023/12/12 01:24:48;;;;;;;6.37;2.27;;;8.90;31.20;;;;;;5014291;28;21325;-66
2023/12/12 01:27:15;;;;;;;5.27;2.40;;;8.90;31.20;;;;;;5009217;28;20460;-68
2023/12/12 01:29:42;;;;;;;8.60;2.40;;;8.90;31.30;;;;;;5013991;28;20489;-65
2023/12/12 01:32:10;;;;;;;4.90;2.53;;;8.80;31.30;;;;;;5016491;28;20478;-66
2023/12/12 01:34:37;;;;;;;5.00;2.33;;;8.80;31.40;;;;;;5015780;28;20455;-66
2023/12/12 01:37:04;;;;;;;5.67;2.50;;;8.80;31.40;;;;;;5012064;28;20480;-66
2023/12/12 01:39:31;;;;;;;8.10;2.67;;;8.70;31.40;;;;;;5014903;28;20526;-66
2023/12/12 01:41:57;;;;;;;6.70;2.90;;;8.70;31.50;;;;;;5017355;28;20487;-65
2023/12/12 01:44:24;;;;;;;11.83;3.10;;;8.60;31.50;;;;;;5018368;28;20591;-66
2023/12/12 01:46:52;;;;;;;5.63;2.70;;;8.60;31.50;;;;;;5032135;28;20524;-66
2023/12/12 01:49:21;;;;;;;6.40;2.93;;;8.60;31.60;;;;;;5034040;28;20484;-66
2023/12/12 01:51:48;;;;;;;11.67;3.87;;;8.50;31.70;;;;;;5013400;28;20564;-66
2023/12/12 01:54:17;;;;;;;6.00;3.10;;;8.50;31.80;;;;;;5012146;28;20459;-66
2023/12/12 01:56:49;;;;;;;7.33;2.93;;;8.50;32.00;;;;;;5008923;28;20464;-66
2023/12/12 01:59:16;;;;;;;8.73;2.83;;;8.50;32.00;;;;;;5016543;28;20455;-66
2023/12/12 02:01:43;;;;;;;7.10;3.40;;;8.40;32.00;;;;;;5011197;28;20493;-66
2023/12/12 02:04:11;;;;;;;7.63;3.00;;;8.40;32.20;;;;;;5014024;28;20456;-66
2023/12/12 02:06:41;;;;;;;6.17;3.40;;;8.40;32.30;;;;;;5007493;28;20467;-67
2023/12/12 02:09:08;;;;;;;8.30;3.40;;;8.40;32.40;;;;;;5010591;28;20459;-66
2023/12/12 02:11:35;;;;;;;8.27;3.73;;;8.30;32.50;;;;;;5010821;28;20479;-65
2023/12/12 02:14:02;;;;;;;6.93;3.40;;;8.40;32.60;;;;;;5011341;28;20456;-65
2023/12/12 02:16:29;;;;;;;5.50;3.60;;;8.30;32.70;;;;;;5009683;28;20470;-65
2023/12/12 02:18:56;;;;;;;8.70;3.47;;;8.30;32.80;;;;;;5010016;28;21138;-65
2023/12/12 02:21:24;;;;;;;5.90;3.43;;;8.30;32.80;;;;;;5009134;28;20479;-66
2023/12/12 02:23:51;;;;;;;7.50;2.97;;;8.30;32.90;;;;;;5009982;28;20455;-66
2023/12/12 02:26:18;;;;;;;9.90;3.20;;;8.30;33.10;;;;;;5009550;28;20521;-66
2023/12/12 02:28:45;;;;;;;5.70;2.63;;;8.30;33.10;;;;;;5011225;28;20460;-66
2023/12/12 02:31:12;;;;;;;9.50;3.57;;;8.30;33.10;;;;;;5009351;28;20476;-66
2023/12/12 02:33:39;;;;;;;15.83;3.30;;;8.30;33.10;;;;;;5010683;28;20570;-65
2023/12/12 02:36:07;;;;;;;6.90;3.57;;;8.30;33.10;;;;;;5020196;23;20495;-67
2023/12/12 02:38:35;;;;;;;6.60;3.33;;;8.30;33.10;;;;;;5005391;28;20845;-67
2023/12/12 02:41:02;;;;;;;6.90;3.37;;;8.30;33.10;;;;;;5009779;28;20494;-68
2023/12/12 02:43:29;;;;;;;8.37;3.93;;;8.30;33.10;;;;;;5009326;28;20460;-67
2023/12/12 02:45:56;;;;;;;8.00;4.20;;;8.30;33.20;;;;;;5009819;28;20467;-67
2023/12/12 02:48:22;;;;;;;7.47;3.80;;;8.30;33.10;;;;;;5010789;28;20456;-67
2023/12/12 02:50:49;;;;;;;6.90;3.70;;;8.20;33.00;;;;;;5009644;28;20583;-67
2023/12/12 02:53:16;;;;;;;9.97;4.20;;;8.20;33.20;;;;;;5010245;28;20466;-67
2023/12/12 02:55:44;;;;;;;7.67;4.40;;;8.20;33.20;;;;;;5007984;28;20460;-67
2023/12/12 02:58:11;;;;;;;7.93;4.17;;;8.20;33.20;;;;;;5010976;28;20455;-67
2023/12/12 03:00:38;;;;;;;10.90;3.83;;;8.20;33.90;;;;;;5009148;28;20464;-65
2023/12/12 03:03:05;;;;;;;7.53;4.23;;;8.20;33.30;;;;;;5009158;28;20470;-66
2023/12/12 03:05:33;;;;;;;7.60;3.97;;;8.20;33.20;;;;;;5010951;28;20872;-67
2023/12/12 03:07:59;;;;;;;7.97;3.73;;;8.20;33.30;;;;;;5007151;28;20462;-65
2023/12/12 03:10:26;;;;;;;12.07;4.10;;;8.20;33.20;;;;;;5009034;28;20490;-67
2023/12/12 03:12:55;;;;;;;6.40;3.87;;;8.20;33.30;;;;;;5007994;28;20467;-66
2023/12/12 03:15:21;;;;;;;8.47;4.37;;;8.10;33.30;;;;;;5005907;28;20459;-67
2023/12/12 03:17:48;;;;;;;8.90;4.70;;;8.20;33.30;;;;;;5010633;28;20548;-65
2023/12/12 03:20:15;;;;;;;7.37;4.77;;;8.20;33.40;;;;;;5008923;28;20482;-65
2023/12/12 03:22:42;;;;;;;8.47;4.87;;;8.20;33.40;;;;;;5009795;28;20559;-67
2023/12/12 03:25:09;;;;;;;10.27;4.30;;;8.10;33.60;;;;;;5011885;28;20448;-67
2023/12/12 03:27:36;;;;;;;8.90;4.73;;;8.20;33.80;;;;;;5010642;28;20506;-67
2023/12/12 03:30:05;;;;;;;9.87;4.60;;;8.20;34.30;;;;;;5007224;28;20850;-64
2023/12/12 03:32:32;;;;;;;9.80;4.67;;;8.20;34.00;;;;;;5009623;28;20479;-67
2023/12/12 03:34:59;;;;;;;7.23;4.27;;;8.20;34.00;;;;;;5007052;28;20466;-67
2023/12/12 03:37:26;;;;;;;8.80;4.63;;;8.20;34.00;;;;;;5011962;28;20462;-65
2023/12/12 03:39:53;;;;;;;5.80;3.80;;;8.30;34.20;;;;;;5009939;28;20519;-65
2023/12/12 03:42:19;;;;;;;8.50;4.13;;;8.30;34.30;;;;;;5008616;28;20555;-67
2023/12/12 03:44:45;;;;;;;6.77;3.80;;;8.30;34.20;;;;;;5009595;28;20485;-67
2023/12/12 03:47:14;;;;;;;7.80;4.07;;;8.30;34.30;;;;;;5008637;28;20213;-65
2023/12/12 03:49:40;;;;;;;11.73;4.60;;;8.30;34.30;;;;;;5008805;28;20507;-65
2023/12/12 03:52:07;;;;;;;10.57;4.30;;;8.30;34.30;;;;;;5007988;28;21047;-67
2023/12/12 03:54:34;;;;;;;7.73;4.40;;;8.30;34.40;;;;;;5009611;28;20566;-67
2023/12/12 03:57:02;;;;;;;7.13;4.60;;;8.30;34.40;;;;;;5010857;28;20467;-68
2023/12/12 03:59:29;;;;;;;7.20;3.97;;;8.30;34.60;;;;;;5008096;28;20921;-68
2023/12/12 04:01:57;;;;;;;6.77;3.80;;;8.40;34.50;;;;;;5002262;28;20894;-68
2023/12/12 04:04:26;;;;;;;8.00;4.10;;;8.40;34.50;;;;;;5010231;28;20623;-67
2023/12/12 04:06:52;;;;;;;9.70;4.20;;;8.50;34.60;;;;;;5010950;28;20459;-67
2023/12/12 04:09:19;;;;;;;8.53;4.77;;;8.50;34.60;;;;;;5012669;28;20911;-68
2023/12/12 04:11:46;;;;;;;7.93;4.60;;;8.50;34.70;;;;;;5010317;28;20490;-65
2023/12/12 04:14:13;;;;;;;11.03;4.70;;;8.50;34.50;;;;;;5009295;28;20467;-67
2023/12/12 04:16:40;;;;;;;9.83;4.60;;;8.60;34.40;;;;;;5006314;28;20467;-65
2023/12/12 04:19:07;;;;;;;6.77;4.57;;;8.60;34.30;;;;;;5011744;28;20716;-67
2023/12/12 04:21:35;;;;;;;9.60;4.87;;;8.60;34.30;;;;;;5005819;28;21003;-67
2023/12/12 04:24:02;;;;;;;9.70;5.80;;;8.70;34.30;;;;;;5015164;28;20535;-67
2023/12/12 04:26:30;;;;;;;8.57;5.07;;;8.60;34.20;;;;;;5012253;28;20555;-66
2023/12/12 04:28:57;;;;;;;8.40;4.63;;;8.60;34.20;;;;;;5008119;28;20812;-67
2023/12/12 04:31:23;;;;;;;8.63;5.13;;;8.70;34.40;;;;;;5004972;28;21102;-67
2023/12/12 04:33:50;;;;;;;7.73;4.67;;;8.70;34.00;;;;;;5006644;28;20574;-67
2023/12/12 04:36:17;;;;;;;6.83;4.70;;;8.70;33.90;;;;;;5004886;28;20464;-67
2023/12/12 04:38:45;;;;;;;7.57;4.57;;;8.70;33.90;;;;;;5004286;28;20500;-66
2023/12/12 04:41:13;;;;;;;9.00;4.60;;;8.70;33.90;;;;;;5006401;28;20976;-67
2023/12/12 04:43:40;;;;;;;8.20;4.90;;;8.70;33.80;;;;;;5006628;28;20463;-67
2023/12/12 04:46:07;;;;;;;8.63;4.97;;;8.70;33.90;;;;;;5007313;28;20469;-67
2023/12/12 04:48:34;;;;;;;7.90;4.83;;;8.70;33.70;;;;;;5005337;28;20456;-67
2023/12/12 04:51:02;;;;;;;7.47;5.30;;;8.70;33.90;;;;;;5004084;28;20492;-68
2023/12/12 04:53:29;;;;;;;7.33;4.90;;;8.70;34.10;;;;;;5002793;28;20468;-68
2023/12/12 04:55:57;;;;;;;7.40;4.83;;;8.60;34.00;;;;;;5005953;28;20847;-68
2023/12/12 04:58:24;;;;;;;8.53;5.27;;;8.70;34.10;;;;;;5005314;28;20586;-66
2023/12/12 05:00:51;;;;;;;8.77;5.77;;;8.60;34.10;;;;;;5006607;28;20574;-69
2023/12/12 05:03:18;;;;;;;8.30;4.50;;;8.60;34.10;;;;;;5021200;28;20467;-70
2023/12/12 05:05:47;;;;;;;7.17;4.57;;;8.60;34.20;;;;;;5025964;28;20459;-68
2023/12/12 05:08:14;;;;;;;8.30;5.30;;;8.60;34.10;;;;;;5026737;28;20450;-69
2023/12/12 05:10:41;;;;;;;36.03;6.40;;;8.60;34.20;;;;;;5027862;28;24639;-69
2023/12/12 05:13:10;;;;;;;7.03;4.80;;;8.60;34.30;;;;;;5028452;28;20951;-69
2023/12/12 05:15:37;;;;;;;6.63;4.07;;;8.60;34.30;;;;;;5027182;28;20819;-68
2023/12/12 05:18:06;;;;;;;7.87;4.67;;;8.70;34.30;;;;;;5021096;28;20865;-69
2023/12/12 05:20:33;;;;;;;7.07;4.80;;;8.60;34.10;;;;;;5022545;28;20611;-68
2023/12/12 05:22:59;;;;;;;9.33;5.20;;;8.60;34.10;;;;;;5022960;28;20464;-68
2023/12/12 05:25:26;;;;;;;9.83;5.20;;;8.60;34.20;;;;;;5026255;28;20959;-68
2023/12/12 05:27:53;;;;;;;8.70;5.00;;;8.60;34.10;;;;;;5026721;28;20545;-67
2023/12/12 05:30:22;;;;;;;7.00;4.70;;;8.60;33.90;;;;;;5028425;28;20482;-67
2023/12/12 05:32:48;;;;;;;7.50;4.70;;;8.60;34.00;;;;;;5025431;28;20463;-67
2023/12/12 05:35:15;;;;;;;8.87;5.40;;;8.60;33.90;;;;;;5029022;28;21041;-67
2023/12/12 05:37:42;;;;;;;6.60;3.97;;;8.50;33.90;;;;;;5027358;28;21063;-67
2023/12/12 05:40:14;;;;;;;8.43;4.87;;;8.50;34.10;;;;;;5024432;28;20474;-68
2023/12/12 05:42:40;;;;;;;7.07;4.03;;;8.50;34.00;;;;;;5024792;28;20459;-68
2023/12/12 05:45:08;;;;;;;9.43;5.53;;;8.50;34.10;;;;;;5025940;28;21021;-68
2023/12/12 05:47:37;;;;;;;7.40;4.67;;;8.50;34.10;;;;;;5011390;28;20470;-67
2023/12/12 05:50:04;;;;;;;8.00;4.43;;;8.50;34.20;;;;;;5028185;28;20505;-68
2023/12/12 05:52:31;;;;;;;7.30;4.13;;;8.50;33.90;;;;;;5023582;28;20565;-67
2023/12/12 05:54:58;;;;;;;8.70;4.83;;;8.80;33.60;;;;;;5029488;28;21002;-68
2023/12/12 05:57:25;;;;;;;8.50;4.10;;;8.60;33.50;;;;;;5026373;28;20498;-68
2023/12/12 05:59:51;;;;;;;7.13;4.07;;;8.60;33.50;;;;;;5023787;28;20462;-67
2023/12/12 06:02:18;;;;;;;9.20;3.87;;;8.60;33.70;;;;;;5026770;28;20920;-67
2023/12/12 06:04:48;;;;;;;8.43;3.83;;;8.60;33.60;;;;;;5023008;28;20457;-68
2023/12/12 06:07:15;;;;;;;6.67;4.50;;;8.60;33.50;;;;;;5028098;28;20490;-68
2023/12/12 06:09:42;;;;;;;8.20;6.10;;;8.60;33.50;;;;;;5024023;28;20758;-68
2023/12/12 06:12:09;;;;;;;8.43;5.30;;;8.60;33.50;;;;;;5024723;28;20486;-73
2023/12/12 06:14:36;;;;;;;7.50;4.30;;;8.50;33.60;;;;;;5022749;28;20562;-74
2023/12/12 06:17:03;;;;;;;7.20;4.37;;;8.50;33.80;;;;;;5024148;28;20479;-71
2023/12/12 06:19:30;;;;;;;10.83;5.13;;;8.50;33.90;;;;;;5025108;28;20725;-71
2023/12/12 06:21:58;;;;;;;11.40;4.33;;;8.50;34.00;;;;;;5023977;28;20483;-73
2023/12/12 06:24:25;;;;;;;8.93;6.43;;;8.40;33.90;;;;;;5022229;28;20993;-73
2023/12/12 06:26:52;;;;;;;9.43;6.50;;;8.50;33.90;;;;;;5019105;28;20565;-73
2023/12/12 06:29:19;;;;;;;8.30;4.80;;;8.40;33.90;;;;;;5021957;28;20558;-75
2023/12/12 06:31:46;;;;;;;7.37;4.53;;;8.40;33.80;;;;;;5021863;28;20570;-75
2023/12/12 06:34:12;;;;;;;7.60;3.50;;;8.40;34.10;;;;;;5031939;28;20606;-72
2023/12/12 06:36:39;;;;;;;7.40;4.50;;;8.40;34.60;;;;;;5030330;28;20479;-72
2023/12/12 06:39:09;;;;;;;8.03;5.33;;;8.40;33.90;;;;;;5024963;28;20903;-72
2023/12/12 06:41:36;;;;;;;6.73;4.63;;;8.40;33.70;;;;;;5024133;28;20896;-72
2023/12/12 06:44:04;;;;;;;9.03;4.37;;;8.30;33.80;;;;;;5027841;28;20546;-73
2023/12/12 06:46:31;;;;;;;7.70;4.40;;;8.20;34.10;;;;;;5022387;28;20455;-74
2023/12/12 06:48:58;;;;;;;13.63;4.50;;;8.20;34.20;;;;;;5034732;28;20742;-72
2023/12/12 06:51:25;;;;;;;5.63;3.80;;;8.20;34.40;;;;;;5034683;28;20487;-73
2023/12/12 06:53:52;;;;;;;6.97;3.90;;;8.20;34.40;;;;;;5032458;28;20890;-74
2023/12/12 06:56:21;;;;;;;7.30;4.50;;;8.10;34.30;;;;;;5029043;28;20454;-73
2023/12/12 06:58:48;;;;;;;8.40;5.10;;;8.10;34.30;;;;;;5021925;28;20551;-72
2023/12/12 07:01:14;;;;;;;8.93;6.00;;;8.10;34.00;;;;;;5025689;28;20557;-72
2023/12/12 07:03:41;;;;;;;7.40;5.03;;;8.10;34.00;;;;;;5025481;28;20468;-72
2023/12/12 07:06:09;;;;;;;5.97;3.60;;;8.10;33.90;;;;;;5024565;28;20919;-71
2023/12/12 07:08:36;;;;;;;6.93;4.03;;;8.10;33.90;;;;;;5029764;28;20454;-73
2023/12/12 07:11:03;;;;;;;6.70;4.07;;;8.00;33.60;;;;;;5030523;28;20474;-66
2023/12/12 07:13:32;;;;;;;6.77;4.00;;;8.00;33.80;;;;;;5030407;28;20447;-66
2023/12/12 07:15:59;;;;;;;7.83;4.60;;;8.00;33.90;;;;;;5026738;28;20458;-66
2023/12/12 07:18:26;;;;;;;7.77;4.40;;;8.00;33.80;;;;;;5027527;28;20535;-66
2023/12/12 07:20:53;;;;;;;9.30;6.43;;;8.00;33.90;;;;;;5030104;28;20565;-67
2023/12/12 07:23:20;;;;;;;21.20;13.63;;;8.10;33.90;;;;;;5026576;28;20451;-66
2023/12/12 07:25:47;;;;;;;69.23;37.60;;;8.00;34.50;;;;;;5042091;28;20465;-65
2023/12/12 07:28:14;;;;;;;31.00;18.33;;;8.10;34.10;;;;;;5030366;28;20463;-65
2023/12/12 07:30:42;;;;;;;27.90;15.67;;;8.10;34.00;;;;;;5025110;28;21050;-65
2023/12/12 07:33:09;;;;;;;26.50;12.80;;;8.10;34.00;;;;;;5030930;28;20479;-68
2023/12/12 07:35:36;;;;;;;11.47;6.60;;;8.20;33.90;;;;;;5031898;28;20557;-65
2023/12/12 07:38:03;;;;;;;9.20;5.27;;;8.20;33.70;;;;;;5032163;28;20454;-67
2023/12/12 07:40:30;;;;;;;8.90;5.57;;;8.30;34.30;;;;;;5028847;28;20582;-68
2023/12/12 07:42:57;;;;;;;8.10;4.27;;;8.30;33.80;;;;;;5027982;28;20968;-67
2023/12/12 07:45:24;;;;;;;7.40;4.37;;;8.40;33.80;;;;;;5025956;28;20497;-66
2023/12/12 07:47:53;;;;;;;5.33;2.70;;;8.40;33.80;;;;;;5026556;28;20463;-66
2023/12/12 07:50:20;;;;;;;5.80;3.23;;;8.50;33.90;;;;;;5028789;28;20493;-70
2023/12/12 07:52:47;;;;;;;5.20;2.93;;;8.50;33.80;;;;;;5029559;28;20486;-67
2023/12/12 07:55:14;;;;;;;5.53;2.70;;;8.50;33.80;;;;;;5027023;28;20468;-67
2023/12/12 07:57:41;;;;;;;7.07;3.53;;;8.60;33.90;;;;;;5025788;28;20458;-67
2023/12/12 08:00:10;;;;;;;5.80;3.40;;;8.60;33.90;;;;;;5027293;28;20467;-67
2023/12/12 08:02:37;;;;;;;5.90;3.57;;;8.60;33.80;;;;;;5026063;28;20995;-67
2023/12/12 08:05:06;;;;;;;5.40;2.90;;;8.70;34.00;;;;;;5024981;28;20459;-67
2023/12/12 08:07:35;;;;;;;5.90;3.30;;;8.70;34.00;;;;;;5023758;28;20442;-67
2023/12/12 08:10:01;;;;;;;6.03;3.30;;;8.70;34.00;;;;;;5028492;28;20466;-67
2023/12/12 08:12:28;;;;;;;6.97;3.23;;;8.80;34.00;;;;;;5021940;28;22307;-67
2023/12/12 08:14:55;;;;;;;9.80;3.60;;;8.80;34.00;;;;;;5032466;28;20969;-67
2023/12/12 08:17:22;;;;;;;7.97;3.60;;;8.80;34.00;;;;;;5029652;28;20462;-67
2023/12/12 08:19:49;;;;;;;6.10;3.80;;;8.90;34.00;;;;;;5028324;28;20907;-65
2023/12/12 08:22:17;;;;;;;7.07;3.00;;;8.90;33.80;;;;;;5031276;28;21097;-64
2023/12/12 08:24:45;;;;;;;5.80;3.10;;;8.90;33.80;;;;;;5025862;28;20486;-65
2023/12/12 08:27:13;;;;;;;5.20;3.13;;;9.00;33.70;;;;;;5025274;28;20471;-65
2023/12/12 08:29:40;;;;;;;7.10;3.27;;;9.00;33.50;;;;;;5030490;28;20961;-65
2023/12/12 08:32:07;;;;;;;4.80;2.47;;;9.10;33.50;;;;;;5022229;28;20467;-65
2023/12/12 08:37:04;;;;;;;6.67;2.43;;;9.10;33.40;;;;;;5017833;28;20623;-65
2023/12/12 08:39:32;;;;;;;8.93;3.77;;;9.20;33.50;;;;;;5021950;28;20803;-65
2023/12/12 08:41:59;;;;;;;7.07;3.20;;;9.20;33.40;;;;;;5025713;28;20474;-66
2023/12/12 08:44:26;;;;;;;8.73;3.23;;;9.20;33.20;;;;;;5025303;28;20498;-65
2023/12/12 08:46:52;;;;;;;5.10;2.60;;;9.20;33.20;;;;;;5015825;28;20470;-70
2023/12/12 08:49:19;;;;;;;6.03;3.43;;;9.30;33.30;;;;;;5025223;28;20542;-70
2023/12/12 08:51:47;;;;;;;5.00;2.27;;;9.30;33.30;;;;;;5025375;28;20490;-70
2023/12/12 08:54:14;;;;;;;6.43;2.77;;;9.30;33.40;;;;;;5024527;28;20463;-70
2023/12/12 08:56:45;;;;;;;5.07;2.37;;;9.30;33.40;;;;;;5023538;28;21251;-70
2023/12/12 08:59:12;;;;;;;5.27;2.50;;;9.30;33.80;;;;;;5020543;28;20463;-70
2023/12/12 09:01:38;;;;;;;4.10;1.90;;;9.40;33.20;;;;;;5034563;28;20550;-69
2023/12/12 09:04:07;;;;;;;5.13;2.43;;;9.40;33.30;;;;;;5046506;28;21011;-69
2023/12/12 09:06:34;;;;;;;4.97;2.50;;;9.50;33.10;;;;;;5043149;28;20468;-69
2023/12/12 09:09:00;;;;;;;5.07;2.30;;;9.50;33.00;;;;;;5047126;28;20534;-72
2023/12/12 09:11:27;;;;;;;5.90;2.50;;;9.50;33.00;;;;;;5071880;28;20477;-71
2023/12/12 09:13:56;;;;;;;4.70;2.87;;;9.60;32.70;;;;;;5054107;28;20474;-70
2023/12/12 09:16:22;;;;;;;5.03;2.60;;;9.60;32.50;;;;;;5043038;28;21042;-70
2023/12/12 09:18:50;;;;;;;5.07;2.77;;;9.60;32.70;;;;;;5043918;28;21920;-71
2023/12/12 09:21:17;;;;;;;5.27;2.87;;;9.60;32.50;;;;;;5041141;28;20573;-72
2023/12/12 09:23:44;;;;;;;4.53;2.13;;;9.60;32.60;;;;;;5043430;28;20505;-71
2023/12/12 09:26:14;;;;;;;6.20;2.20;;;9.70;32.70;;;;;;5040860;28;20561;-72
2023/12/12 09:28:42;;;;;;;6.23;2.30;;;9.80;32.80;;;;;;5041159;28;20451;-71
2023/12/12 09:31:11;;;;;;;4.53;2.40;;;9.70;32.70;;;;;;5040574;28;20478;-74
2023/12/12 09:33:39;;;;;;;4.83;1.83;;;9.80;32.90;;;;;;5044999;28;20516;-72
2023/12/12 09:36:07;;;;;;;4.30;2.10;;;9.80;33.40;;;;;;5046646;28;20565;-71
2023/12/12 09:38:34;;;;;;;4.83;1.97;;;9.80;33.10;;;;;;5043120;28;20477;-71
2023/12/12 09:41:01;;;;;;;4.30;2.07;;;9.80;33.00;;;;;;5042577;28;20531;-72
2023/12/12 09:43:29;;;;;;;5.83;2.30;;;9.90;33.10;;;;;;5042924;28;21068;-71
2023/12/12 09:45:58;;;;;;;4.30;1.90;;;9.90;33.30;;;;;;5039754;28;21130;-71
2023/12/12 09:48:27;;;;;;;4.50;2.30;;;9.90;33.20;;;;;;5042148;28;21196;-71
2023/12/12 09:50:56;;;;;;;5.23;2.23;;;10.00;33.30;;;;;;5043028;28;21404;-71
2023/12/12 09:53:25;;;;;;;4.23;1.97;;;10.00;33.40;;;;;;5046362;28;20547;-70
2023/12/12 09:55:53;;;;;;;5.20;2.47;;;10.00;33.40;;;;;;5047642;28;21051;-69
2023/12/12 09:58:20;;;;;;;5.20;2.70;;;10.00;33.50;;;;;;5044810;28;20542;-70
2023/12/12 10:00:47;;;;;;;6.10;2.50;;;10.10;33.50;;;;;;5044253;28;20552;-70
2023/12/12 10:03:15;;;;;;;5.40;2.80;;;10.10;33.60;;;;;;5049641;28;20529;-71
2023/12/12 10:05:51;;;;;;;6.40;3.47;;;10.10;33.60;;;;;;5045390;28;20900;-71
2023/12/12 10:08:18;;;;;;;7.10;4.20;;;10.10;33.70;;;;;;5047894;28;20572;-70
2023/12/12 10:10:45;;;;;;;6.63;4.90;;;10.10;33.60;;;;;;5044719;28;20872;-71
2023/12/12 10:13:12;;;;;;;8.60;5.50;;;10.00;33.50;;;;;;5040928;28;21125;-70
2023/12/12 10:15:39;;;;;;;10.70;4.27;;;10.00;33.50;;;;;;5039999;28;20466;-71
2023/12/12 10:18:06;;;;;;;8.23;5.43;;;10.00;33.60;;;;;;5041573;28;20811;-71
2023/12/12 10:20:35;;;;;;;10.43;5.63;;;10.00;33.60;;;;;;5043628;28;20517;-72
2023/12/12 10:23:04;;;;;;;8.80;5.67;;;10.00;33.60;;;;;;5044061;28;20457;-71
2023/12/12 10:25:33;;;;;;;11.47;6.17;;;10.00;33.60;;;;;;5044709;28;20458;-73
2023/12/12 10:28:01;;;;;;;8.67;5.77;;;10.00;33.50;;;;;;5043062;28;20558;-73
2023/12/12 10:30:28;;;;;;;10.20;6.10;;;10.00;33.60;;;;;;5047031;28;20484;-73
2023/12/12 10:32:56;;;;;;;10.70;6.37;;;9.90;33.60;;;;;;5044701;28;20494;-72
2023/12/12 10:35:25;;;;;;;11.00;6.20;;;9.90;33.60;;;;;;5043533;28;20581;-71
2023/12/12 10:37:53;;;;;;;8.57;5.33;;;9.90;33.80;;;;;;5042187;28;20534;-71
2023/12/12 10:40:23;;;;;;;9.77;5.60;;;10.00;33.70;;;;;;5045713;28;20589;-71
2023/12/12 10:42:50;;;;;;;8.13;4.60;;;9.90;33.90;;;;;;5044053;28;20454;-69
2023/12/12 10:45:20;;;;;;;9.53;5.13;;;9.90;34.00;;;;;;5043946;28;20560;-69
2023/12/12 10:47:47;;;;;;;7.93;4.00;;;9.90;34.10;;;;;;5047609;28;20966;-69
2023/12/12 10:50:16;;;;;;;7.37;4.30;;;9.90;34.00;;;;;;5046858;28;20484;-70
2023/12/12 10:52:45;;;;;;;9.17;4.17;;;9.90;34.00;;;;;;5046946;28;21088;-71
2023/12/12 10:55:13;;;;;;;6.73;3.93;;;9.90;33.90;;;;;;5046160;28;21065;-72
2023/12/12 10:57:44;;;;;;;8.87;5.57;;;10.00;34.00;;;;;;5045828;28;20548;-72
2023/12/12 11:00:13;;;;;;;9.40;5.77;;;10.00;34.00;;;;;;5045881;28;20558;-70
2023/12/12 11:02:41;;;;;;;11.53;4.80;;;10.00;34.00;;;;;;5044356;28;20490;-71
2023/12/12 11:05:11;;;;;;;10.80;5.27;;;10.00;34.10;;;;;;5043122;28;20552;-70
2023/12/12 11:07:38;;;;;;;11.50;6.23;;;10.00;34.20;;;;;;5048114;28;20468;-69
2023/12/12 11:10:08;;;;;;;11.13;5.50;;;10.00;34.20;;;;;;5043273;28;20969;-70
2023/12/12 11:12:38;;;;;;;7.80;5.70;;;10.00;34.30;;;;;;5042470;28;20478;-73
2023/12/12 11:15:09;;;;;;;8.87;5.73;;;10.00;34.40;;;;;;5044197;28;20469;-73
2023/12/12 11:17:37;;;;;;;9.70;5.20;;;10.00;34.40;;;;;;5046381;28;21001;-71
2023/12/12 11:20:14;;;;;;;8.90;6.13;;;10.10;34.50;;;;;;5044458;28;20553;-72
2023/12/12 11:22:42;;;;;;;7.97;5.63;;;10.10;34.70;;;;;;5043946;28;20461;-72
2023/12/12 11:25:16;;;;;;;8.00;4.97;;;10.20;34.50;;;;;;5043314;28;20987;-70
2023/12/12 11:27:46;;;;;;;7.17;5.30;;;10.20;34.60;;;;;;5043669;28;20461;-71
2023/12/12 11:30:15;;;;;;;7.63;5.20;;;10.20;34.60;;;;;;5042498;28;20496;-73
2023/12/12 11:32:42;;;;;;;8.03;5.50;;;10.30;34.70;;;;;;5039868;28;20485;-72
2023/12/12 11:35:26;;;;;;;9.47;5.60;;;10.30;34.70;;;;;;5040510;28;20558;-72
2023/12/12 11:37:55;;;;;;;16.80;5.87;;;10.30;34.90;;;;;;5040450;28;20476;-71
2023/12/12 11:40:23;;;;;;;10.90;6.80;;;10.40;34.70;;;;;;5045326;28;20492;-72
2023/12/12 11:42:53;;;;;;;13.60;6.50;;;10.40;34.70;;;;;;5041699;28;20454;-72
2023/12/12 11:45:34;;;;;;;9.30;5.03;;;10.40;34.70;;;;;;5043326;28;20458;-71
2023/12/12 11:48:05;;;;;;;7.77;4.50;;;10.50;34.50;;;;;;5042728;28;20553;-72
2023/12/12 11:50:33;;;;;;;8.43;5.07;;;10.60;33.90;;;;;;5038993;28;20582;-71
2023/12/12 11:53:02;;;;;;;8.17;5.10;;;10.60;34.00;;;;;;5040040;28;20504;-70
2023/12/12 11:55:32;;;;;;;8.17;5.07;;;10.60;34.10;;;;;;5043208;28;20531;-70
2023/12/12 11:58:01;;;;;;;8.90;5.10;;;10.60;34.30;;;;;;5044017;28;20473;-69
2023/12/12 12:00:33;;;;;;;7.30;4.10;;;10.70;34.40;;;;;;5041060;28;20482;-69
2023/12/12 12:03:00;;;;;;;10.27;5.13;;;10.80;34.40;;;;;;5052948;28;20526;-70
2023/12/12 12:05:27;;;;;;;8.20;4.70;;;10.80;34.20;;;;;;5068958;28;20462;-70
2023/12/12 12:07:56;;;;;;;8.23;5.80;;;10.90;34.40;;;;;;5051183;28;20556;-70
2023/12/12 12:10:23;;;;;;;9.07;5.67;;;10.80;34.60;;;;;;5038671;28;20482;-68
2023/12/12 12:12:54;;;;;;;10.97;6.10;;;10.80;34.60;;;;;;5042607;28;20497;-69
2023/12/12 12:15:21;;;;;;;8.30;4.80;;;10.90;34.70;;;;;;5039175;28;20564;-69
2023/12/12 12:17:50;;;;;;;8.17;5.40;;;10.80;34.70;;;;;;5039947;28;20548;-70
2023/12/12 12:20:17;;;;;;;8.97;4.53;;;10.80;34.60;;;;;;5036851;28;20509;-68
2023/12/12 12:22:44;;;;;;;7.17;4.50;;;10.90;34.10;;;;;;5035842;28;20554;-69
2023/12/12 12:25:12;;;;;;;7.53;3.50;;;10.90;34.10;;;;;;5042263;28;20820;-69
2023/12/12 12:27:49;;;;;;;6.90;4.10;;;11.00;33.80;;;;;;5038652;28;20478;-70
2023/12/12 12:30:18;;;;;;;10.93;5.47;;;10.90;34.20;;;;;;5039312;28;20481;-71
2023/12/12 12:33:00;;;;;;;9.17;5.27;;;10.90;34.40;;;;;;5040235;28;20523;-70
2023/12/12 12:35:27;;;;;;;10.60;4.90;;;10.90;34.80;;;;;;5045522;28;20507;-70
2023/12/12 12:37:54;;;;;;;8.63;4.97;;;10.90;34.80;;;;;;5037665;28;20540;-70
2023/12/12 12:40:34;;;;;;;8.50;6.50;;;10.90;35.20;;;;;;5045369;28;20489;-70
2023/12/12 12:43:04;;;;;;;7.40;5.93;;;10.80;35.70;;;;;;5041915;28;20453;-69
2023/12/12 12:45:31;;;;;;;8.10;4.80;;;10.80;36.10;;;;;;5040288;28;20462;-72
2023/12/12 12:47:59;;;;;;;9.03;5.30;;;10.80;36.40;;;;;;5036628;28;20583;-71
2023/12/12 12:50:26;;;;;;;7.17;4.20;;;10.80;36.80;;;;;;5042668;28;21083;-71
2023/12/12 12:52:53;;;;;;;8.50;4.87;;;10.80;37.10;;;;;;5040873;28;21352;-71
2023/12/12 12:55:20;;;;;;;8.40;4.70;;;10.80;37.10;;;;;;5038311;28;20557;-70
2023/12/12 12:57:47;;;;;;;6.77;3.23;;;10.80;37.30;;;;;;5037981;28;20596;-71